createdAt,value
2018-11-25T00:00:33.636Z,20.21
2018-11-25T00:03:06.350Z,20.06
2018-11-25T00:05:38.447Z,20.08
2018-11-25T00:08:25.043Z,20.05
2018-11-25T00:10:57.358Z,20.08
2018-11-25T00:13:29.353Z,20.13
2018-11-25T00:16:01.267Z,20.13
2018-11-25T00:18:33.104Z,20.12
2018-11-25T00:21:05.092Z,20.05
2018-11-25T00:23:36.962Z,20.05
2018-11-25T00:26:09.031Z,20.04
2018-11-25T00:28:40.830Z,20.08
2018-11-25T00:31:12.447Z,20.06
2018-11-25T00:33:45.095Z,20.11
2018-11-25T00:36:16.864Z,19.95
2018-11-25T00:38:49.656Z,20.02
2018-11-25T00:41:21.506Z,20.02
2018-11-25T00:43:53.673Z,20.03
2018-11-25T00:46:25.348Z,19.97
2018-11-25T00:48:57.071Z,20.00
2018-11-25T00:51:29.764Z,19.94
2018-11-25T00:54:01.888Z,19.84
2018-11-25T00:56:33.608Z,19.84
2018-11-25T00:59:05.620Z,19.86
2018-11-25T01:01:37.667Z,19.81
2018-11-25T01:04:09.752Z,19.86
2018-11-25T01:06:41.525Z,19.85
2018-11-25T01:09:13.634Z,19.88
2018-11-25T01:11:45.883Z,19.84
2018-11-25T01:14:17.861Z,19.80
2018-11-25T01:16:49.769Z,19.78
2018-11-25T01:19:21.650Z,19.79
2018-11-25T01:21:53.355Z,19.75
2018-11-25T01:24:25.611Z,19.79
2018-11-25T01:26:57.470Z,19.80
2018-11-25T01:29:29.237Z,19.73
2018-11-25T01:32:01.373Z,19.67
2018-11-25T01:34:33.683Z,19.73
2018-11-25T01:37:05.364Z,19.74
2018-11-25T01:39:37.025Z,19.81
2018-11-25T01:42:09.612Z,19.75
2018-11-25T01:44:41.350Z,19.74
2018-11-25T01:47:13.935Z,19.79
2018-11-25T01:49:46.092Z,19.82
2018-11-25T01:52:18.131Z,19.82
2018-11-25T01:54:50.049Z,19.87
2018-11-25T01:57:21.745Z,19.87
2018-11-25T01:59:53.268Z,19.93
2018-11-25T02:02:25.116Z,21.42
2018-11-25T02:04:57.761Z,21.98
2018-11-25T02:07:29.542Z,22.01
2018-11-25T02:10:01.461Z,21.96
2018-11-25T02:12:33.542Z,21.61
2018-11-25T02:15:05.644Z,21.64
2018-11-25T02:17:37.338Z,21.83
2018-11-25T02:20:12.342Z,21.98
2018-11-25T02:22:44.088Z,22.04
2018-11-25T02:25:16.233Z,22.10
2018-11-25T02:27:48.435Z,22.14
2018-11-25T02:30:20.664Z,22.10
2018-11-25T02:32:52.579Z,22.14
2018-11-25T02:35:25.341Z,22.24
2018-11-25T02:37:57.347Z,22.22
2018-11-25T02:40:29.171Z,22.19
2018-11-25T02:43:00.888Z,22.27
2018-11-25T02:45:32.698Z,22.31
2018-11-25T02:48:04.235Z,22.34
2018-11-25T02:50:36.297Z,22.38
2018-11-25T02:53:08.930Z,22.37
2018-11-25T02:55:40.915Z,22.40
2018-11-25T02:58:13.703Z,22.14
2018-11-25T03:00:45.707Z,21.94
2018-11-25T03:03:17.692Z,21.79
2018-11-25T03:05:49.974Z,21.80
2018-11-25T03:08:21.814Z,21.75
2018-11-25T03:10:54.036Z,21.78
2018-11-25T03:13:25.907Z,21.80
2018-11-25T03:15:57.855Z,21.79
2018-11-25T03:18:29.607Z,21.91
2018-11-25T03:21:01.975Z,21.87
2018-11-25T03:23:33.930Z,21.94
2018-11-25T03:26:05.678Z,21.99
2018-11-25T03:28:37.213Z,22.12
2018-11-25T03:31:09.067Z,22.10
2018-11-25T03:33:41.352Z,22.05
2018-11-25T03:36:14.083Z,22.07
2018-11-25T03:38:45.840Z,22.09
2018-11-25T03:41:17.572Z,22.13
2018-11-25T03:43:49.845Z,22.14
2018-11-25T03:46:21.602Z,22.15
2018-11-25T03:48:53.720Z,22.14
2018-11-25T03:51:26.364Z,22.15
2018-11-25T03:53:57.981Z,22.08
2018-11-25T03:56:29.558Z,22.04
2018-11-25T03:59:01.505Z,22.25
2018-11-25T04:01:33.127Z,22.30
2018-11-25T04:04:05.676Z,22.49
2018-11-25T04:06:37.431Z,22.46
2018-11-25T04:09:10.822Z,22.53
2018-11-25T04:11:42.639Z,22.54
2018-11-25T04:14:15.217Z,22.50
2018-11-25T04:16:47.096Z,22.53
2018-11-25T04:19:18.906Z,22.58
2018-11-25T04:21:50.409Z,22.56
2018-11-25T04:24:22.270Z,22.59
2018-11-25T04:26:53.783Z,22.54
2018-11-25T04:29:26.248Z,22.59
2018-11-25T04:31:57.921Z,22.70
2018-11-25T04:34:29.582Z,22.71
2018-11-25T04:37:01.777Z,22.71
2018-11-25T04:39:33.394Z,22.75
2018-11-25T04:42:05.072Z,22.82
2018-11-25T04:44:36.513Z,22.79
2018-11-25T04:47:08.050Z,22.79
2018-11-25T04:49:39.603Z,22.91
2018-11-25T04:52:11.253Z,22.92
2018-11-25T04:54:42.771Z,22.95
2018-11-25T04:57:14.267Z,23.00
2018-11-25T04:59:45.869Z,23.07
2018-11-25T05:02:17.579Z,23.09
2018-11-25T05:04:49.542Z,23.11
2018-11-25T05:07:22.001Z,23.18
2018-11-25T05:09:53.351Z,23.26
2018-11-25T05:12:24.781Z,23.49
2018-11-25T05:14:56.365Z,23.43
2018-11-25T05:17:27.928Z,23.47
2018-11-25T05:19:59.482Z,23.44
2018-11-25T05:22:31.100Z,23.46
2018-11-25T05:25:02.605Z,23.59
2018-11-25T05:27:34.223Z,23.56
2018-11-25T05:30:06.500Z,23.70
2018-11-25T05:32:38.098Z,23.68
2018-11-25T05:35:11.293Z,23.70
2018-11-25T05:37:43.091Z,23.71
2018-11-25T05:40:18.130Z,23.72
2018-11-25T05:42:49.589Z,23.59
2018-11-25T05:45:21.908Z,23.84
2018-11-25T05:47:53.299Z,23.88
2018-11-25T05:50:25.167Z,23.86
2018-11-25T05:52:57.747Z,23.80
2018-11-25T05:55:29.211Z,23.85
2018-11-25T05:58:00.658Z,23.83
2018-11-25T06:00:35.044Z,23.94
2018-11-25T06:03:06.582Z,24.03
2018-11-25T06:05:39.670Z,24.06
2018-11-25T06:08:11.802Z,24.02
2018-11-25T06:10:46.185Z,24.02
2018-11-25T06:13:18.874Z,23.98
2018-11-25T06:15:54.034Z,24.23
2018-11-25T06:18:25.552Z,24.15
2018-11-25T06:20:57.273Z,24.25
2018-11-25T06:23:28.775Z,24.19
2018-11-25T06:26:01.304Z,24.18
2018-11-25T06:28:32.860Z,24.21
2018-11-25T06:31:04.547Z,24.26
2018-11-25T06:33:36.111Z,24.29
2018-11-25T06:36:07.911Z,24.42
2018-11-25T06:38:39.729Z,24.61
2018-11-25T06:41:15.079Z,24.46
2018-11-25T06:43:53.389Z,24.46
2018-11-25T06:46:24.220Z,24.65
2018-11-25T06:48:56.975Z,24.61
2018-11-25T06:51:28.439Z,24.48
2018-11-25T06:54:00.197Z,24.71
2018-11-25T06:56:31.932Z,24.41
2018-11-25T06:59:03.588Z,24.49
2018-11-25T07:01:35.194Z,24.57
2018-11-25T07:04:06.917Z,24.76
2018-11-25T07:06:38.894Z,24.81
2018-11-25T07:09:12.183Z,24.75
2018-11-25T07:11:44.497Z,24.70
2018-11-25T07:14:19.893Z,24.70
2018-11-25T07:16:51.469Z,24.76
2018-11-25T07:19:23.133Z,24.88
2018-11-25T07:21:54.506Z,24.80
2018-11-25T07:24:26.252Z,24.73
2018-11-25T07:26:58.097Z,25.02
2018-11-25T07:29:30.635Z,25.08
2018-11-25T07:32:02.427Z,25.11
2018-11-25T07:34:34.079Z,25.12
2018-11-25T07:37:05.827Z,24.96
2018-11-25T07:39:37.545Z,25.13
2018-11-25T07:42:09.168Z,24.89
2018-11-25T07:44:41.386Z,25.00
2018-11-25T07:47:13.038Z,25.02
2018-11-25T07:49:44.902Z,25.27
2018-11-25T07:52:16.585Z,25.60
2018-11-25T07:54:49.041Z,25.77
2018-11-25T07:57:26.121Z,25.49
2018-11-25T07:59:57.709Z,25.37
2018-11-25T08:02:29.294Z,25.52
2018-11-25T08:05:01.923Z,25.52
2018-11-25T08:07:34.199Z,25.43
2018-11-25T08:10:10.924Z,25.35
2018-11-25T08:12:42.606Z,25.34
2018-11-25T08:15:17.677Z,25.52
2018-11-25T08:17:50.390Z,25.53
2018-11-25T08:20:22.599Z,25.26
2018-11-25T08:22:54.735Z,25.21
2018-11-25T08:25:27.255Z,25.21
2018-11-25T08:28:04.141Z,25.39
2018-11-25T08:30:35.807Z,25.48
2018-11-25T08:33:07.665Z,25.38
2018-11-25T08:35:39.450Z,25.42
2018-11-25T08:38:11.211Z,25.46
2018-11-25T08:40:43.829Z,25.47
2018-11-25T08:43:15.539Z,25.54
2018-11-25T08:57:38.335Z,25.45
2018-11-25T09:00:15.662Z,25.59
2018-11-25T09:32:45.330Z,25.57
2018-11-25T09:35:17.240Z,25.61
2018-11-25T09:37:49.792Z,25.67
2018-11-25T09:40:24.196Z,25.70
2018-11-25T09:42:55.893Z,25.62
2018-11-25T09:45:27.545Z,25.66
2018-11-25T09:47:59.379Z,25.65
2018-11-25T09:50:33.144Z,25.62
2018-11-25T09:53:04.887Z,25.76
2018-11-25T09:55:37.548Z,25.79
2018-11-25T09:58:09.150Z,25.78
2018-11-25T10:00:41.653Z,25.64
2018-11-25T10:03:17.316Z,25.75
2018-11-25T10:05:49.512Z,25.83
2018-11-25T10:08:21.125Z,25.81
2018-11-25T10:10:55.888Z,25.77
2018-11-25T10:13:27.329Z,25.74
2018-11-25T10:15:58.949Z,25.73
2018-11-25T10:18:30.530Z,25.68
2018-11-25T10:21:01.985Z,25.70
2018-11-25T10:23:33.435Z,25.75
2018-11-25T10:26:05.082Z,25.79
2018-11-25T10:28:36.916Z,25.72
2018-11-25T10:31:08.665Z,25.78
2018-11-25T10:33:40.207Z,25.74
2018-11-25T10:36:12.222Z,25.72
2018-11-25T10:38:44.752Z,25.70
2018-11-25T10:41:16.567Z,25.69
2018-11-25T10:43:48.063Z,25.69
2018-11-25T10:46:19.524Z,25.76
2018-11-25T10:48:56.643Z,25.72
2018-11-25T10:51:28.254Z,25.70
2018-11-25T10:53:59.850Z,25.71
2018-11-25T10:56:31.489Z,25.67
2018-11-25T10:59:03.199Z,25.71
2018-11-25T11:01:52.130Z,25.72
2018-11-25T11:04:30.563Z,25.70
2018-11-25T11:07:09.041Z,25.67
2018-11-25T11:09:42.427Z,25.69
2018-11-25T11:12:15.904Z,25.72
2018-11-25T11:14:48.766Z,25.74
2018-11-25T11:17:24.231Z,25.72
2018-11-25T11:19:55.668Z,25.71
2018-11-25T11:22:27.195Z,25.70
2018-11-25T11:24:59.610Z,25.70
2018-11-25T11:27:31.314Z,25.69
2018-11-25T11:30:03.941Z,25.67
2018-11-25T11:32:39.272Z,25.69
2018-11-25T11:35:11.082Z,25.66
2018-11-25T11:37:42.638Z,25.64
2018-11-25T11:40:18.677Z,25.65
2018-11-25T11:42:51.463Z,25.61
2018-11-25T11:45:22.914Z,25.62
2018-11-25T11:47:55.421Z,25.61
2018-11-25T11:50:27.140Z,25.60
2018-11-25T11:52:59.506Z,25.55
2018-11-25T11:55:31.123Z,25.55
2018-11-25T11:58:03.691Z,25.54
2018-11-25T12:00:39.085Z,25.44
2018-11-25T12:03:13.755Z,25.36
2018-11-25T12:05:46.564Z,25.24
2018-11-25T12:08:18.149Z,25.17
2018-11-25T12:13:51.761Z,25.06
2018-11-25T12:16:24.258Z,25.03
2018-11-25T12:18:55.999Z,24.93
2018-11-25T12:21:33.421Z,25.04
2018-11-25T12:24:04.999Z,25.10
2018-11-25T12:26:36.656Z,25.12
2018-11-25T12:29:10.218Z,25.11
2018-11-25T12:31:41.872Z,25.01
2018-11-25T12:34:13.390Z,24.90
2018-11-25T12:36:44.941Z,24.82
2018-11-25T12:39:16.509Z,24.84
2018-11-25T12:41:48.718Z,24.82
2018-11-25T12:44:20.184Z,24.83
2018-11-25T12:46:51.749Z,24.80
2018-11-25T12:49:23.483Z,24.69
2018-11-25T12:51:55.155Z,24.72
2018-11-25T12:54:26.534Z,24.69
2018-11-25T12:56:58.048Z,24.64
2018-11-25T12:59:29.426Z,24.63
2018-11-25T13:02:01.025Z,24.62
2018-11-25T13:04:32.680Z,24.55
2018-11-25T13:07:09.636Z,24.64
2018-11-25T13:09:41.282Z,24.62
2018-11-25T13:12:13.565Z,24.67
2018-11-25T13:14:45.306Z,24.70
2018-11-25T13:17:16.773Z,24.72
2018-11-25T13:19:48.444Z,24.66
2018-11-25T13:22:19.979Z,24.68
2018-11-25T13:24:51.342Z,24.68
2018-11-25T13:27:22.894Z,24.68
2018-11-25T13:29:54.253Z,24.69
2018-11-25T13:32:25.758Z,24.60
2018-11-25T13:34:57.179Z,24.53
2018-11-25T13:37:28.816Z,24.54
2018-11-25T13:40:00.364Z,24.49
2018-11-25T13:42:32.574Z,24.46
2018-11-25T13:45:02.435Z,24.40
2018-11-25T13:47:34.985Z,24.35
2018-11-25T13:50:06.586Z,24.31
2018-11-25T13:52:38.232Z,24.31
2018-11-25T13:55:16.125Z,24.25
2018-11-25T13:57:47.607Z,24.23
2018-11-25T14:00:48.572Z,24.19
2018-11-25T14:03:50.619Z,24.21
2018-11-25T14:06:22.145Z,24.13
2018-11-25T14:08:56.786Z,24.19
2018-11-25T14:11:29.233Z,24.18
2018-11-25T14:14:01.722Z,24.06
2018-11-25T14:16:34.995Z,24.12
2018-11-25T14:19:05.928Z,24.07
2018-11-25T14:21:37.343Z,23.99
2018-11-25T14:24:08.767Z,23.94
2018-11-25T14:26:42.892Z,23.92
2018-11-25T14:29:15.101Z,23.88
2018-11-25T14:31:46.556Z,23.87
2018-11-25T14:34:18.033Z,23.87
2018-11-25T14:36:49.334Z,23.84
2018-11-25T14:39:20.980Z,23.74
2018-11-25T14:41:52.718Z,23.79
2018-11-25T14:44:24.316Z,23.78
2018-11-25T14:46:56.712Z,23.74
2018-11-25T14:49:28.218Z,23.75
2018-11-25T14:51:59.641Z,23.73
2018-11-25T14:54:31.095Z,23.70
2018-11-25T14:57:02.454Z,34.04
2018-11-25T14:59:33.774Z,45.79
2018-11-25T15:02:05.250Z,47.61
2018-11-25T15:04:37.011Z,48.54
2018-11-25T15:07:08.558Z,48.49
2018-11-25T15:09:39.934Z,48.33
2018-11-25T15:12:11.321Z,48.42
2018-11-25T15:14:42.635Z,37.09
2018-11-25T15:17:14.311Z,27.97
2018-11-25T15:19:45.699Z,25.56
2018-11-25T15:22:17.311Z,24.86
2018-11-25T15:24:48.724Z,24.45
2018-11-25T15:27:20.257Z,24.28
2018-11-25T15:29:52.347Z,24.12
2018-11-25T15:32:24.179Z,24.02
2018-11-25T15:34:55.606Z,23.86
2018-11-25T15:37:27.114Z,23.78
2018-11-25T15:39:59.148Z,23.76
2018-11-25T15:42:31.343Z,23.72
2018-11-25T15:45:03.066Z,23.65
2018-11-25T15:47:35.281Z,23.69
2018-11-25T15:50:11.815Z,23.62
2018-11-25T15:52:43.517Z,23.57
2018-11-25T15:55:16.288Z,23.59
2018-11-25T15:57:48.318Z,23.53
2018-11-25T16:00:21.444Z,23.51
2018-11-25T16:02:53.238Z,23.53
2018-11-25T16:05:27.713Z,23.47
2018-11-25T16:07:59.338Z,23.41
2018-11-25T16:10:31.411Z,23.41
2018-11-25T16:13:03.192Z,23.44
2018-11-25T16:15:34.991Z,23.44
2018-11-25T16:18:07.034Z,23.37
2018-11-25T16:20:39.441Z,23.30
2018-11-25T16:23:12.004Z,23.24
2018-11-25T16:25:50.186Z,23.27
2018-11-25T16:28:27.990Z,23.22
2018-11-25T16:31:00.303Z,23.19
2018-11-25T16:33:32.024Z,23.19
2018-11-25T16:36:03.628Z,23.12
2018-11-25T16:38:36.458Z,23.10
2018-11-25T16:41:08.856Z,23.08
2018-11-25T16:43:40.795Z,23.06
2018-11-25T16:46:12.906Z,23.01
2018-11-25T16:48:44.770Z,22.92
2018-11-25T16:51:16.940Z,22.98
2018-11-25T16:53:48.927Z,22.95
2018-11-25T16:56:20.896Z,22.90
2018-11-25T16:58:52.695Z,22.75
2018-11-25T17:01:25.010Z,22.85
2018-11-25T17:03:56.829Z,22.85
2018-11-25T17:06:28.547Z,22.75
2018-11-25T17:09:02.838Z,22.76
2018-11-25T17:11:35.199Z,22.72
2018-11-25T17:14:07.563Z,22.74
2018-11-25T17:16:39.081Z,22.74
2018-11-25T17:19:10.784Z,22.61
2018-11-25T17:21:42.775Z,22.62
2018-11-25T17:24:14.518Z,22.48
2018-11-25T17:26:46.178Z,22.54
2018-11-25T17:29:17.667Z,22.54
2018-11-25T17:31:50.166Z,22.49
2018-11-25T17:34:22.087Z,22.54
2018-11-25T17:36:54.210Z,22.51
2018-11-25T17:39:26.076Z,22.55
2018-11-25T17:41:57.465Z,22.58
2018-11-25T17:44:29.531Z,22.67
2018-11-25T17:47:01.196Z,22.75
2018-11-25T17:49:34.072Z,22.77
2018-11-25T17:52:06.044Z,22.65
2018-11-25T17:54:37.958Z,22.48
2018-11-25T17:57:10.008Z,22.35
2018-11-25T17:59:41.454Z,22.46
2018-11-25T18:02:13.597Z,22.49
2018-11-25T18:04:45.444Z,22.43
2018-11-25T18:07:17.559Z,22.35
2018-11-25T18:09:49.212Z,22.29
2018-11-25T18:12:21.291Z,22.16
2018-11-25T18:14:53.662Z,22.10
2018-11-25T18:17:25.759Z,22.09
2018-11-25T18:19:57.897Z,22.17
2018-11-25T18:22:31.950Z,22.12
2018-11-25T18:25:03.406Z,22.11
2018-11-25T18:27:35.094Z,22.20
2018-11-25T18:30:08.124Z,22.01
2018-11-25T18:32:40.446Z,22.03
2018-11-25T18:35:12.305Z,21.84
2018-11-25T18:37:43.911Z,21.95
2018-11-25T18:40:16.076Z,21.94
2018-11-25T18:42:47.707Z,22.00
2018-11-25T18:45:20.186Z,22.03
2018-11-25T18:47:52.545Z,21.79
2018-11-25T18:50:24.036Z,21.83
2018-11-25T18:52:56.823Z,21.80
2018-11-25T18:55:25.560Z,21.83
2018-11-25T18:57:57.281Z,21.75
2018-11-25T19:00:32.773Z,21.73
2018-11-25T19:03:04.569Z,21.67
2018-11-25T19:05:36.392Z,21.75
2018-11-25T19:08:08.936Z,21.74
2018-11-25T19:10:40.858Z,21.78
2018-11-25T19:13:12.582Z,21.56
2018-11-25T19:15:44.780Z,21.59
2018-11-25T19:18:16.307Z,21.65
2018-11-25T19:20:48.568Z,21.62
2018-11-25T19:23:20.939Z,21.68
2018-11-25T19:25:52.767Z,21.54
2018-11-25T19:28:24.839Z,21.61
2018-11-25T19:30:56.703Z,21.52
2018-11-25T19:33:28.476Z,21.34
2018-11-25T19:35:59.925Z,21.29
2018-11-25T19:38:31.608Z,21.35
2018-11-25T19:41:03.797Z,21.35
2018-11-25T19:43:35.519Z,21.49
2018-11-25T19:46:07.444Z,21.27
2018-11-25T19:48:38.936Z,21.22
2018-11-25T19:51:17.351Z,21.15
2018-11-25T19:53:44.638Z,21.17
2018-11-25T19:56:16.354Z,21.16
2018-11-25T19:58:47.991Z,21.25
2018-11-25T20:01:19.822Z,21.37
2018-11-25T20:03:51.697Z,21.20
2018-11-25T20:06:23.138Z,21.18
2018-11-25T20:08:54.518Z,21.08
2018-11-25T20:11:26.083Z,21.03
2018-11-25T20:13:57.877Z,20.92
2018-11-25T20:16:34.228Z,20.89
2018-11-25T20:19:05.852Z,20.91
2018-11-25T20:21:42.297Z,20.85
2018-11-25T20:24:14.371Z,21.04
2018-11-25T20:26:51.012Z,21.09
2018-11-25T20:29:22.466Z,21.13
2018-11-25T20:31:58.899Z,20.94
2018-11-25T20:34:30.394Z,20.82
2018-11-25T20:37:01.953Z,20.66
2018-11-25T20:39:36.043Z,20.70
2018-11-25T20:42:07.912Z,20.78
2018-11-25T20:44:39.702Z,20.72
2018-11-25T20:47:11.312Z,20.84
2018-11-25T20:49:42.852Z,20.71
2018-11-25T20:52:19.118Z,20.72
2018-11-25T20:54:51.033Z,20.63
2018-11-25T20:57:22.913Z,20.68
2018-11-25T20:59:54.378Z,20.77
2018-11-25T21:02:29.305Z,20.93
2018-11-25T21:04:58.369Z,20.85
2018-11-25T21:07:29.951Z,20.85
2018-11-25T21:10:01.634Z,20.79
2018-11-25T21:12:33.152Z,20.64
2018-11-25T21:15:05.300Z,20.58
2018-11-25T21:17:36.862Z,20.63
2018-11-25T21:20:16.988Z,20.68
2018-11-25T21:22:48.948Z,20.45
2018-11-25T21:25:22.390Z,20.60
2018-11-25T21:27:54.404Z,20.55
2018-11-25T21:30:27.524Z,20.49
2018-11-25T21:33:00.117Z,20.49
2018-11-25T21:35:31.655Z,20.52
2018-11-25T21:38:03.221Z,20.51
2018-11-25T21:40:35.242Z,20.42
2018-11-25T21:43:06.925Z,20.70
2018-11-25T21:45:38.740Z,20.71
2018-11-25T21:48:10.149Z,20.80
2018-11-25T21:50:42.003Z,20.83
2018-11-25T21:53:13.438Z,20.74
2018-11-25T21:55:45.667Z,20.71
2018-11-25T21:58:17.619Z,20.66
2018-11-25T22:00:49.418Z,20.62
2018-11-25T22:03:21.656Z,20.55
2018-11-25T22:05:53.693Z,20.67
2018-11-25T22:08:25.439Z,20.70
2018-11-25T22:10:57.663Z,20.45
2018-11-25T22:13:29.611Z,20.43
2018-11-25T22:16:01.973Z,20.66
2018-11-25T22:18:34.008Z,20.58
2018-11-25T22:21:05.616Z,20.70
2018-11-25T22:23:37.982Z,20.59
2018-11-25T22:26:09.551Z,20.52
2018-11-25T22:28:41.538Z,20.45
2018-11-25T22:31:13.104Z,20.64
2018-11-25T22:33:45.395Z,20.47
2018-11-25T22:36:17.277Z,20.41
2018-11-25T22:38:48.802Z,20.34
2018-11-25T22:41:20.208Z,20.33
2018-11-25T22:43:51.873Z,20.32
2018-11-25T22:46:23.733Z,20.42
2018-11-25T22:48:55.359Z,20.41
2018-11-25T22:51:26.880Z,20.26
2018-11-25T22:53:58.439Z,20.24
2018-11-25T22:56:29.953Z,20.28
2018-11-25T22:59:01.533Z,20.21
2018-11-25T23:01:33.174Z,20.34
2018-11-25T23:04:14.800Z,20.35
2018-11-25T23:07:08.322Z,20.32
2018-11-25T23:09:40.346Z,20.27
2018-11-25T23:12:13.107Z,20.30
2018-11-25T23:14:45.005Z,20.18
2018-11-25T23:17:16.648Z,20.22
2018-11-25T23:19:48.437Z,20.18
2018-11-25T23:22:20.311Z,20.25
2018-11-25T23:24:52.213Z,20.18
2018-11-25T23:27:23.653Z,20.20
2018-11-25T23:29:55.308Z,20.17
2018-11-25T23:32:26.702Z,20.08
2018-11-25T23:34:58.025Z,20.17
2018-11-25T23:37:29.446Z,20.15
2018-11-25T23:40:01.473Z,20.19
2018-11-25T23:42:33.378Z,20.19
2018-11-25T23:45:05.554Z,20.16
2018-11-25T23:47:37.876Z,20.12
2018-11-25T23:50:11.128Z,20.08
2018-11-25T23:52:43.328Z,20.09
2018-11-25T23:55:15.664Z,20.09
2018-11-25T23:57:47.454Z,20.07
